createdAt,value
2023-03-30T00:02:22.933Z,11.88
2023-03-30T00:04:51.339Z,11.82
2023-03-30T00:07:19.546Z,11.82
2023-03-30T00:09:47.085Z,11.84
2023-03-30T00:12:20.392Z,11.80
2023-03-30T00:14:51.302Z,11.85
2023-03-30T00:17:20.721Z,11.80
2023-03-30T00:19:48.718Z,11.77
2023-03-30T00:22:17.060Z,11.75
2023-03-30T00:24:44.611Z,11.79
2023-03-30T00:27:12.540Z,11.74
2023-03-30T00:29:40.476Z,11.72
2023-03-30T00:32:11.668Z,11.74
2023-03-30T00:34:39.243Z,11.73
2023-03-30T00:37:06.943Z,11.70
2023-03-30T00:39:34.972Z,11.72
2023-03-30T00:42:02.501Z,11.71
2023-03-30T00:45:15.874Z,11.68
2023-03-30T00:47:49.482Z,11.64
2023-03-30T00:50:21.812Z,11.58
2023-03-30T00:52:52.609Z,11.56
2023-03-30T00:55:23.126Z,11.54
2023-03-30T00:57:55.525Z,11.53
2023-03-30T01:00:23.728Z,11.49
2023-03-30T01:02:57.217Z,11.46
2023-03-30T01:05:25.862Z,11.49
2023-03-30T01:07:54.548Z,11.47
2023-03-30T01:10:22.998Z,11.49
2023-03-30T01:12:51.085Z,11.50
2023-03-30T01:15:21.689Z,11.53
2023-03-30T01:18:04.008Z,11.56
2023-03-30T01:21:03.193Z,11.59
2023-03-30T01:24:15.916Z,11.60
2023-03-30T01:26:55.149Z,11.60
2023-03-30T01:29:37.737Z,11.62
2023-03-30T01:32:34.227Z,11.64
2023-03-30T01:35:16.633Z,11.66
2023-03-30T01:38:03.156Z,11.69
2023-03-30T01:40:38.888Z,11.74
2023-03-30T01:43:12.079Z,11.78
2023-03-30T01:45:44.964Z,11.83
2023-03-30T01:48:16.832Z,11.84
2023-03-30T01:50:49.276Z,11.88
2023-03-30T01:53:21.427Z,11.88
2023-03-30T01:56:00.564Z,11.89
2023-03-30T01:58:34.978Z,11.88
2023-03-30T02:01:05.655Z,11.87
2023-03-30T02:03:37.275Z,11.87
2023-03-30T02:06:10.527Z,11.85
2023-03-30T02:08:40.221Z,11.85
2023-03-30T02:11:09.211Z,11.89
2023-03-30T02:13:39.615Z,11.87
2023-03-30T02:16:14.146Z,11.86
2023-03-30T02:18:46.532Z,11.84
2023-03-30T02:21:14.151Z,11.84
2023-03-30T02:23:46.447Z,11.81
2023-03-30T02:26:15.567Z,11.89
2023-03-30T02:28:43.250Z,11.90
2023-03-30T02:31:13.545Z,11.92
2023-03-30T02:33:53.916Z,11.92
2023-03-30T02:36:38.617Z,11.94
2023-03-30T02:39:23.773Z,11.97
2023-03-30T02:42:11.023Z,12.01
2023-03-30T02:44:47.952Z,12.05
2023-03-30T02:47:24.152Z,12.09
2023-03-30T02:50:01.576Z,12.14
2023-03-30T02:52:43.053Z,12.16
2023-03-30T02:55:16.181Z,12.19
2023-03-30T02:58:03.742Z,12.24
2023-03-30T03:00:56.897Z,12.26
2023-03-30T03:03:37.486Z,12.29
2023-03-30T03:06:09.289Z,12.31
2023-03-30T03:08:43.860Z,12.32
2023-03-30T03:11:14.850Z,12.34
2023-03-30T03:13:44.583Z,12.34
2023-03-30T03:16:13.597Z,12.34
2023-03-30T03:18:54.172Z,12.33
2023-03-30T03:21:21.937Z,12.30
2023-03-30T03:23:49.493Z,12.29
2023-03-30T03:26:22.608Z,12.25
2023-03-30T03:28:52.967Z,12.19
2023-03-30T03:31:22.635Z,12.16
2023-03-30T03:33:50.776Z,12.10
2023-03-30T03:36:25.578Z,12.06
2023-03-30T03:38:54.289Z,11.97
2023-03-30T03:41:21.835Z,11.88
2023-03-30T03:43:50.538Z,11.80
2023-03-30T03:46:21.797Z,11.73
2023-03-30T03:48:49.589Z,11.67
2023-03-30T03:51:17.535Z,11.62
2023-03-30T03:53:49.584Z,11.57
2023-03-30T03:56:18.220Z,11.51
2023-03-30T03:58:45.985Z,11.44
2023-03-30T04:01:16.560Z,11.40
2023-03-30T04:03:45.695Z,11.35
2023-03-30T04:06:13.631Z,11.29
2023-03-30T04:08:41.735Z,11.24
2023-03-30T04:11:21.257Z,11.18
2023-03-30T04:14:06.591Z,11.17
2023-03-30T04:16:46.161Z,11.20
2023-03-30T04:22:50.030Z,11.37
2023-03-30T04:25:41.563Z,11.55
2023-03-30T04:28:40.117Z,11.67
2023-03-30T04:31:42.603Z,11.81
2023-03-30T04:34:24.078Z,11.95
2023-03-30T04:37:18.163Z,12.02
2023-03-30T04:40:07.913Z,12.10
2023-03-30T04:42:52.764Z,12.15
2023-03-30T04:45:20.576Z,12.19
2023-03-30T04:48:04.658Z,12.25
2023-03-30T04:50:54.052Z,12.29
2023-03-30T04:53:40.150Z,12.34
2023-03-30T04:56:26.265Z,12.40
2023-03-30T04:59:10.780Z,12.49
2023-03-30T05:02:14.705Z,12.64
2023-03-30T05:05:01.566Z,12.68
2023-03-30T05:08:01.625Z,12.75
2023-03-30T05:10:49.798Z,12.88
2023-03-30T05:13:33.126Z,12.94
2023-03-30T05:16:30.282Z,12.99
2023-03-30T05:19:13.247Z,13.04
2023-03-30T05:22:05.330Z,13.08
2023-03-30T05:24:56.636Z,13.13
2023-03-30T05:27:38.542Z,13.16
2023-03-30T05:30:17.604Z,13.23
2023-03-30T05:33:10.560Z,13.24
2023-03-30T05:35:58.572Z,13.26
2023-03-30T05:38:48.350Z,13.31
2023-03-30T05:41:32.496Z,13.31
2023-03-30T05:44:22.449Z,13.33
2023-03-30T05:47:22.782Z,13.30
2023-03-30T05:50:16.376Z,13.29
2023-03-30T05:52:54.053Z,13.28
2023-03-30T05:55:48.551Z,13.23
2023-03-30T05:58:26.558Z,13.26
2023-03-30T06:01:09.363Z,13.25
2023-03-30T06:03:42.114Z,13.23
2023-03-30T06:06:12.098Z,13.26
2023-03-30T06:09:05.082Z,13.23
2023-03-30T06:11:36.164Z,13.25
2023-03-30T06:14:13.157Z,13.25
2023-03-30T06:16:46.801Z,13.26
2023-03-30T06:19:15.080Z,13.27
2023-03-30T06:21:42.744Z,13.31
2023-03-30T06:24:22.649Z,13.32
2023-03-30T06:26:51.623Z,13.35
2023-03-30T06:29:21.023Z,13.42
2023-03-30T06:31:51.194Z,13.44
2023-03-30T06:34:37.227Z,13.46
2023-03-30T06:37:05.030Z,13.48
2023-03-30T06:39:37.237Z,13.54
2023-03-30T06:42:06.468Z,13.54
2023-03-30T06:44:49.379Z,13.59
2023-03-30T06:47:45.626Z,13.57
2023-03-30T06:50:14.633Z,13.67
2023-03-30T06:52:54.383Z,13.71
2023-03-30T06:55:23.398Z,13.69
2023-03-30T06:57:51.000Z,13.71
2023-03-30T07:00:20.423Z,13.82
2023-03-30T07:03:08.761Z,13.85
2023-03-30T07:05:44.611Z,13.90
2023-03-30T07:08:18.294Z,13.94
2023-03-30T07:10:52.606Z,13.95
2023-03-30T07:13:25.657Z,13.99
2023-03-30T07:15:53.535Z,14.19
2023-03-30T07:18:22.478Z,14.26
2023-03-30T07:20:51.089Z,14.43
2023-03-30T07:23:27.037Z,14.50
2023-03-30T07:25:56.917Z,14.60
2023-03-30T07:28:32.749Z,14.69
2023-03-30T07:31:06.204Z,14.75
2023-03-30T07:33:38.453Z,14.94
2023-03-30T07:36:08.684Z,15.05
2023-03-30T07:38:38.098Z,15.02
2023-03-30T07:41:08.531Z,14.91
2023-03-30T07:43:37.788Z,14.82
2023-03-30T07:46:06.059Z,14.69
2023-03-30T07:48:40.503Z,14.61
2023-03-30T07:51:12.268Z,14.55
2023-03-30T07:53:49.125Z,14.45
2023-03-30T07:56:27.674Z,14.42
2023-03-30T07:59:01.471Z,14.37
2023-03-30T08:01:35.573Z,14.35
2023-03-30T08:04:28.201Z,14.31
2023-03-30T08:06:56.246Z,14.30
2023-03-30T08:09:24.617Z,14.26
2023-03-30T08:11:54.146Z,14.22
2023-03-30T08:14:23.386Z,14.28
2023-03-30T08:16:51.727Z,14.08
2023-03-30T08:19:19.302Z,13.96
2023-03-30T08:21:48.382Z,13.83
2023-03-30T08:24:16.083Z,13.67
2023-03-30T08:26:43.820Z,13.56
2023-03-30T08:29:12.850Z,13.50
2023-03-30T08:31:42.507Z,13.41
2023-03-30T08:34:10.581Z,13.37
2023-03-30T08:36:39.383Z,13.48
2023-03-30T08:39:14.632Z,13.18
2023-03-30T08:42:00.441Z,12.91
2023-03-30T08:44:37.289Z,12.76
2023-03-30T08:47:07.501Z,12.71
2023-03-30T08:49:42.251Z,12.59
2023-03-30T08:52:20.023Z,12.45
2023-03-30T08:54:51.563Z,12.39
2023-03-30T08:57:39.018Z,12.41
2023-03-30T09:00:20.241Z,12.41
2023-03-30T09:02:51.526Z,12.35
2023-03-30T09:05:23.920Z,12.41
2023-03-30T09:08:01.768Z,12.52
2023-03-30T09:10:36.872Z,12.53
2023-03-30T09:13:33.464Z,12.55
2023-03-30T09:16:10.693Z,12.46
2023-03-30T09:18:46.008Z,12.66
2023-03-30T09:21:14.671Z,12.64
2023-03-30T09:23:45.045Z,12.69
2023-03-30T09:26:21.966Z,12.76
2023-03-30T09:29:02.572Z,12.94
2023-03-30T09:31:37.777Z,13.17
2023-03-30T09:34:09.000Z,13.31
2023-03-30T09:36:44.212Z,13.31
2023-03-30T09:39:16.540Z,13.35
2023-03-30T09:42:11.702Z,13.48
2023-03-30T09:44:47.697Z,13.60
2023-03-30T09:47:24.471Z,13.80
2023-03-30T09:50:00.847Z,13.79
2023-03-30T09:52:30.288Z,13.86
2023-03-30T09:54:58.172Z,13.99
2023-03-30T09:57:30.735Z,14.01
2023-03-30T10:00:00.216Z,14.27
2023-03-30T10:02:31.273Z,14.27
2023-03-30T10:05:02.065Z,14.32
2023-03-30T10:07:33.145Z,14.30
2023-03-30T10:10:05.655Z,14.23
2023-03-30T10:12:35.420Z,14.28
2023-03-30T10:15:04.226Z,14.32
2023-03-30T10:17:32.444Z,14.29
2023-03-30T10:20:18.340Z,14.26
2023-03-30T10:22:51.574Z,14.26
2023-03-30T10:25:22.593Z,14.25
2023-03-30T10:27:55.853Z,14.18
2023-03-30T10:30:28.217Z,14.18
2023-03-30T10:32:58.779Z,14.09
2023-03-30T10:35:33.018Z,14.20
2023-03-30T10:38:03.317Z,14.06
2023-03-30T10:40:36.629Z,13.96
2023-03-30T10:43:14.596Z,13.78
2023-03-30T10:45:48.006Z,13.73
2023-03-30T10:48:30.872Z,13.67
2023-03-30T10:51:08.632Z,13.64
2023-03-30T10:53:48.602Z,13.69
2023-03-30T10:56:28.504Z,13.80
2023-03-30T10:59:25.256Z,13.79
2023-03-30T11:02:18.044Z,13.79
2023-03-30T11:04:48.805Z,13.94
2023-03-30T11:07:25.608Z,13.89
2023-03-30T11:09:55.695Z,13.95
2023-03-30T11:12:31.336Z,13.87
2023-03-30T11:15:06.681Z,13.88
2023-03-30T11:17:44.096Z,14.00
2023-03-30T11:20:23.546Z,14.19
2023-03-30T11:22:59.356Z,14.18
2023-03-30T11:25:34.132Z,14.20
2023-03-30T11:28:14.598Z,14.24
2023-03-30T11:30:45.735Z,14.27
2023-03-30T11:33:45.008Z,14.34
2023-03-30T11:36:19.425Z,14.51
2023-03-30T11:38:53.543Z,14.57
2023-03-30T11:41:29.539Z,14.63
2023-03-30T11:43:57.210Z,14.53
2023-03-30T11:46:36.724Z,14.58
2023-03-30T11:49:29.636Z,14.63
2023-03-30T11:52:06.273Z,14.81
2023-03-30T11:55:19.600Z,14.99
2023-03-30T11:57:59.664Z,14.88
2023-03-30T12:00:42.222Z,14.81
2023-03-30T12:03:17.828Z,14.82
2023-03-30T12:05:48.260Z,14.81
2023-03-30T12:08:31.606Z,14.83
2023-03-30T12:11:04.811Z,14.79
2023-03-30T12:13:44.578Z,14.83
2023-03-30T12:16:21.105Z,14.89
2023-03-30T12:18:59.444Z,14.82
2023-03-30T12:21:32.607Z,14.71
2023-03-30T12:24:10.640Z,14.80
2023-03-30T12:26:39.334Z,14.64
2023-03-30T12:32:09.720Z,14.81
2023-03-30T12:34:44.891Z,14.91
2023-03-30T12:37:15.733Z,14.98
2023-03-30T12:39:49.640Z,15.07
2023-03-30T12:42:27.102Z,15.08
2023-03-30T12:45:09.034Z,15.22
2023-03-30T12:47:49.301Z,15.23
2023-03-30T12:50:33.595Z,15.38
2023-03-30T12:53:15.287Z,15.54
2023-03-30T12:55:47.496Z,15.57
2023-03-30T12:58:32.087Z,15.63
2023-03-30T13:01:17.420Z,15.67
2023-03-30T13:03:52.377Z,15.80
2023-03-30T13:06:27.538Z,15.81
2023-03-30T13:08:57.660Z,15.87
2023-03-30T13:11:25.484Z,15.98
2023-03-30T13:13:59.017Z,15.98
2023-03-30T13:17:08.003Z,16.01
2023-03-30T13:19:48.445Z,15.92
2023-03-30T13:22:29.093Z,15.82
2023-03-30T13:25:00.711Z,15.74
2023-03-30T13:27:32.684Z,15.64
2023-03-30T13:30:02.615Z,15.57
2023-03-30T13:32:46.020Z,15.56
2023-03-30T13:35:30.266Z,15.57
2023-03-30T13:38:23.394Z,15.32
2023-03-30T13:41:04.754Z,15.22
2023-03-30T13:43:50.106Z,15.16
2023-03-30T13:46:26.790Z,15.16
2023-03-30T13:49:06.814Z,15.19
2023-03-30T13:51:37.384Z,15.12
2023-03-30T13:54:13.707Z,15.10
2023-03-30T13:56:45.397Z,15.09
2023-03-30T13:59:15.052Z,15.06
2023-03-30T14:01:48.103Z,14.96
2023-03-30T14:04:16.271Z,14.76
2023-03-30T14:06:46.993Z,14.57
2023-03-30T14:09:21.799Z,14.40
2023-03-30T14:11:51.233Z,14.24
2023-03-30T14:14:25.283Z,14.01
2023-03-30T14:16:53.101Z,13.91
2023-03-30T14:19:25.614Z,13.85
2023-03-30T14:21:58.157Z,13.78
2023-03-30T14:24:32.726Z,13.63
2023-03-30T14:27:06.049Z,13.52
2023-03-30T14:29:33.764Z,13.49
2023-03-30T14:34:35.906Z,13.31
2023-03-30T14:37:06.638Z,13.29
2023-03-30T14:39:42.361Z,13.27
2023-03-30T14:42:16.480Z,13.32
2023-03-30T14:44:45.361Z,13.30
2023-03-30T14:47:13.393Z,13.26
2023-03-30T14:49:43.845Z,13.27
2023-03-30T14:52:17.699Z,13.32
2023-03-30T14:55:04.339Z,13.38
2023-03-30T14:57:37.839Z,13.50
2023-03-30T15:00:18.664Z,13.47
2023-03-30T15:02:47.584Z,13.46
2023-03-30T15:05:18.597Z,13.51
2023-03-30T15:07:49.054Z,13.51
2023-03-30T15:10:27.141Z,13.57
2023-03-30T15:12:58.591Z,13.66
2023-03-30T15:15:54.229Z,13.69
2023-03-30T15:18:27.061Z,13.62
2023-03-30T15:20:56.400Z,13.72
2023-03-30T15:23:25.679Z,13.76
2023-03-30T15:26:00.860Z,13.86
2023-03-30T15:28:35.666Z,13.92
2023-03-30T15:31:03.578Z,14.02
2023-03-30T15:33:36.782Z,14.11
2023-03-30T15:36:08.340Z,14.17
2023-03-30T15:38:44.036Z,14.16
2023-03-30T15:41:17.622Z,14.18
2023-03-30T15:43:55.589Z,14.14
2023-03-30T15:46:23.746Z,14.16
2023-03-30T15:48:54.712Z,14.11
2023-03-30T15:53:59.671Z,14.19
2023-03-30T15:56:35.650Z,14.18
2023-03-30T15:59:03.482Z,14.22
2023-03-30T16:01:48.677Z,14.21
2023-03-30T16:04:21.399Z,14.19
2023-03-30T16:06:49.179Z,14.20
2023-03-30T16:09:16.848Z,14.16
2023-03-30T16:11:47.172Z,14.13
2023-03-30T16:14:19.964Z,14.10
2023-03-30T16:16:52.601Z,14.07
2023-03-30T16:19:21.023Z,14.02
2023-03-30T16:21:48.626Z,14.07
2023-03-30T16:24:17.104Z,14.03
2023-03-30T16:26:46.726Z,13.79
2023-03-30T16:29:22.284Z,13.60
2023-03-30T16:31:50.450Z,13.39
2023-03-30T16:34:18.284Z,13.30
2023-03-30T16:36:46.104Z,13.21
2023-03-30T16:39:19.604Z,13.11
2023-03-30T16:41:50.547Z,13.08
2023-03-30T16:44:22.278Z,13.00
2023-03-30T16:46:50.243Z,12.93
2023-03-30T16:49:21.445Z,12.88
2023-03-30T16:51:49.608Z,12.79
2023-03-30T16:54:30.536Z,12.70
2023-03-30T16:57:02.740Z,12.64
2023-03-30T16:59:32.399Z,12.61
2023-03-30T17:02:00.920Z,12.57
2023-03-30T17:04:28.531Z,12.55
2023-03-30T17:06:56.324Z,12.52
2023-03-30T17:09:24.339Z,12.49
2023-03-30T17:11:51.895Z,12.45
2023-03-30T17:14:23.137Z,12.42
2023-03-30T17:16:51.233Z,12.42
2023-03-30T17:19:18.914Z,12.38
2023-03-30T17:21:46.440Z,12.35
2023-03-30T17:24:16.369Z,12.33
2023-03-30T17:26:44.568Z,12.30
2023-03-30T17:29:12.219Z,12.28
2023-03-30T17:31:45.219Z,12.26
2023-03-30T17:34:13.288Z,12.23
2023-03-30T17:36:40.839Z,12.22
2023-03-30T17:39:10.264Z,12.22
2023-03-30T17:41:38.111Z,12.18
2023-03-30T17:44:06.477Z,12.17
2023-03-30T17:46:35.238Z,12.15
2023-03-30T17:49:04.267Z,12.11
2023-03-30T17:51:31.820Z,12.10
2023-03-30T17:53:59.656Z,12.08
2023-03-30T17:56:28.729Z,12.06
2023-03-30T17:58:56.256Z,12.02
2023-03-30T18:01:24.250Z,12.02
2023-03-30T18:03:52.750Z,11.98
2023-03-30T18:06:21.737Z,11.95
2023-03-30T18:08:49.619Z,11.95
2023-03-30T18:11:17.208Z,11.91
2023-03-30T18:13:45.800Z,11.87
2023-03-30T18:16:13.833Z,11.89
2023-03-30T18:18:41.629Z,11.86
2023-03-30T18:21:11.425Z,11.83
2023-03-30T18:23:40.570Z,11.84
2023-03-30T18:26:11.987Z,11.80
2023-03-30T18:28:43.575Z,11.81
2023-03-30T18:31:11.900Z,11.82
2023-03-30T18:33:40.175Z,11.81
2023-03-30T18:36:12.547Z,11.80
2023-03-30T18:38:42.606Z,11.80
2023-03-30T18:41:12.320Z,11.78
2023-03-30T18:43:40.653Z,11.76
2023-03-30T18:46:11.952Z,11.73
2023-03-30T18:48:39.746Z,11.75
2023-03-30T18:51:10.836Z,11.74
2023-03-30T18:53:38.401Z,11.70
2023-03-30T18:56:07.791Z,11.66
2023-03-30T18:58:41.548Z,11.66
2023-03-30T19:01:12.622Z,11.64
2023-03-30T19:03:41.621Z,11.62
2023-03-30T19:06:13.623Z,11.61
2023-03-30T19:08:43.594Z,11.57
2023-03-30T19:11:14.721Z,11.57
2023-03-30T19:13:42.325Z,11.60
2023-03-30T19:16:10.272Z,11.60
2023-03-30T19:18:37.871Z,11.55
2023-03-30T19:21:06.765Z,11.54
2023-03-30T19:23:34.572Z,11.58
2023-03-30T19:26:03.632Z,11.60
2023-03-30T19:28:33.258Z,11.60
2023-03-30T19:31:05.010Z,11.59
2023-03-30T19:33:32.782Z,11.58
2023-03-30T19:36:00.437Z,11.55
2023-03-30T19:38:28.150Z,11.55
2023-03-30T19:41:00.681Z,11.55
2023-03-30T19:43:28.833Z,11.54
2023-03-30T19:45:58.697Z,11.53
2023-03-30T19:48:27.648Z,11.50
2023-03-30T19:50:55.243Z,11.50
2023-03-30T19:53:23.168Z,11.45
2023-03-30T19:55:50.909Z,11.49
2023-03-30T19:58:19.121Z,11.42
2023-03-30T20:00:49.341Z,11.42
2023-03-30T20:03:18.705Z,11.41
2023-03-30T20:05:50.796Z,11.40
2023-03-30T20:08:24.306Z,11.39
2023-03-30T20:10:53.105Z,11.39
2023-03-30T20:13:21.925Z,11.39
2023-03-30T20:15:49.732Z,11.38
2023-03-30T20:18:20.505Z,11.37
2023-03-30T20:20:48.245Z,11.39
2023-03-30T20:23:15.935Z,11.41
2023-03-30T20:25:49.052Z,11.40
2023-03-30T20:28:17.687Z,11.40
2023-03-30T20:30:47.167Z,11.40
2023-03-30T20:33:15.228Z,11.39
2023-03-30T20:35:44.153Z,11.43
2023-03-30T20:38:11.693Z,11.42
2023-03-30T20:40:39.274Z,11.46
2023-03-30T20:43:10.061Z,11.43
2023-03-30T20:45:45.793Z,11.42
2023-03-30T20:48:25.817Z,11.43
2023-03-30T20:50:55.139Z,11.43
2023-03-30T20:53:23.864Z,11.44
2023-03-30T20:55:51.619Z,11.43
2023-03-30T20:58:22.077Z,11.46
2023-03-30T21:00:51.800Z,11.48
2023-03-30T21:03:20.216Z,11.47
2023-03-30T21:05:48.319Z,11.46
2023-03-30T21:08:17.349Z,11.42
2023-03-30T21:10:44.971Z,11.41
2023-03-30T21:13:14.970Z,11.40
2023-03-30T21:15:44.708Z,11.40
2023-03-30T21:18:13.090Z,11.38
2023-03-30T21:20:40.742Z,11.37
2023-03-30T21:23:08.672Z,11.35
2023-03-30T21:25:37.648Z,11.33
2023-03-30T21:28:06.036Z,11.29
2023-03-30T21:30:35.630Z,11.26
2023-03-30T21:33:03.740Z,11.26
2023-03-30T21:35:31.430Z,11.26
2023-03-30T21:37:59.022Z,11.22
2023-03-30T21:40:26.621Z,11.24
2023-03-30T21:42:56.417Z,11.18
2023-03-30T21:45:24.614Z,11.18
2023-03-30T21:47:52.350Z,11.15
2023-03-30T21:50:20.249Z,11.17
2023-03-30T21:52:48.217Z,11.16
2023-03-30T21:55:16.665Z,11.20
2023-03-30T21:57:44.270Z,11.19
2023-03-30T22:00:15.482Z,11.20
2023-03-30T22:02:43.264Z,11.28
2023-03-30T22:05:11.109Z,11.23
2023-03-30T22:07:39.065Z,11.24
2023-03-30T22:10:07.110Z,11.24
2023-03-30T22:12:35.177Z,11.26
2023-03-30T22:15:02.730Z,11.23
2023-03-30T22:17:41.973Z,11.29
2023-03-30T22:20:11.365Z,11.24
2023-03-30T22:22:39.051Z,11.31
2023-03-30T22:25:07.140Z,11.24
2023-03-30T22:27:35.941Z,11.26
2023-03-30T22:30:03.684Z,11.24
2023-03-30T22:32:34.692Z,11.19
2023-03-30T22:35:02.552Z,11.17
2023-03-30T22:37:31.342Z,11.15
2023-03-30T22:39:58.867Z,11.12
2023-03-30T22:42:26.977Z,11.11
2023-03-30T22:44:54.568Z,11.07
2023-03-30T22:47:22.279Z,11.13
2023-03-30T22:49:52.766Z,11.04
2023-03-30T22:52:22.246Z,10.99
2023-03-30T22:54:49.813Z,10.95
2023-03-30T22:57:17.551Z,10.94
2023-03-30T22:59:45.301Z,10.92
2023-03-30T23:02:12.978Z,10.97
2023-03-30T23:04:40.829Z,10.88
2023-03-30T23:07:10.286Z,10.86
2023-03-30T23:09:38.617Z,10.85
2023-03-30T23:12:06.814Z,10.81
2023-03-30T23:14:35.693Z,10.81
2023-03-30T23:17:03.409Z,10.73
2023-03-30T23:19:31.477Z,10.74
2023-03-30T23:21:59.112Z,10.70
2023-03-30T23:24:28.169Z,10.66
2023-03-30T23:26:55.747Z,10.65
2023-03-30T23:29:25.462Z,10.62
2023-03-30T23:31:53.103Z,10.61
2023-03-30T23:34:22.749Z,10.56
2023-03-30T23:36:50.964Z,10.54
2023-03-30T23:39:20.518Z,10.51
2023-03-30T23:41:49.709Z,10.50
2023-03-30T23:44:17.320Z,10.51
2023-03-30T23:46:44.897Z,10.50
2023-03-30T23:49:12.542Z,10.47
2023-03-30T23:51:40.259Z,10.45
2023-03-30T23:54:07.956Z,10.43
2023-03-30T23:56:36.923Z,10.50
2023-03-30T23:59:06.441Z,10.41
